Time;durP1;ratioP1;P1;durP2;ratioP2;P2;SDS_P1;SDS_P2;PMS_P1;PMS_P2;Temp;Humidity;BMP_temperature;BMP_pressure;BME280_temperature;BME280_humidity;BME280_pressure;Samples;Min_cycle;Max_cycle;Signal;HPM_P1;HPM_P2
2021/08/05 00:02:27;;;;;;;2.90;2.03;;;;;;;;;;5109497;27;20035;-77
2021/08/05 00:05:12;;;;;;;2.83;1.98;;;;;;;;;;5082038;28;20085;-77
2021/08/05 00:07:56;;;;;;;2.45;1.90;;;;;;;;;;5085486;28;20041;-78
2021/08/05 00:10:41;;;;;;;3.13;1.98;;;;;;;;;;5084822;28;21889;-76
2021/08/05 00:13:25;;;;;;;2.63;1.88;;;;;;;;;;5065968;28;20046;-77
2021/08/05 00:16:10;;;;;;;3.13;1.95;;;;;;;;;;5097960;28;20154;-77
2021/08/05 00:18:55;;;;;;;3.42;2.15;;;;;;;;;;5088344;28;20096;-78
2021/08/05 00:21:39;;;;;;;3.13;1.90;;;;;;;;;;5099794;28;20050;-76
2021/08/05 00:24:24;;;;;;;3.17;2.00;;;;;;;;;;5085559;28;20053;-75
2021/08/05 00:27:08;;;;;;;2.58;1.80;;;;;;;;;;5102646;28;20042;-76
2021/08/05 00:29:53;;;;;;;2.97;1.95;;;;;;;;;;5072706;28;20061;-76
2021/08/05 00:32:37;;;;;;;3.10;1.90;;;;;;;;;;5103062;28;20050;-75
2021/08/05 00:35:22;;;;;;;2.83;1.92;;;;;;;;;;5103620;28;20096;-76
2021/08/05 00:38:07;;;;;;;3.67;2.10;;;;;;;;;;5097986;28;20062;-78
2021/08/05 00:40:52;;;;;;;2.90;2.00;;;;;;;;;;5068639;28;20043;-77
2021/08/05 00:43:36;;;;;;;2.88;1.80;;;;;;;;;;5089487;28;20463;-77
2021/08/05 00:46:21;;;;;;;3.13;1.90;;;;;;;;;;5104262;28;20396;-77
2021/08/05 00:49:05;;;;;;;2.47;1.85;;;;;;;;;;5087659;28;20100;-76
2021/08/05 00:51:50;;;;;;;2.72;1.90;;;;;;;;;;5103982;28;20031;-77
2021/08/05 00:54:35;;;;;;;2.40;1.75;;;;;;;;;;5087942;28;20043;-77
2021/08/05 00:57:20;;;;;;;2.75;1.90;;;;;;;;;;5088934;28;20567;-76
2021/08/05 01:00:05;;;;;;;3.13;2.00;;;;;;;;;;5079778;28;20046;-77
2021/08/05 01:02:50;;;;;;;2.35;1.95;;;;;;;;;;5085160;27;20475;-77
2021/08/05 01:05:37;;;;;;;2.63;1.80;;;;;;;;;;5120524;27;20063;-76
2021/08/05 01:08:23;;;;;;;2.47;1.88;;;;;;;;;;5133485;27;20092;-76
2021/08/05 01:11:11;;;;;;;2.70;1.90;;;;;;;;;;5096425;27;20088;-76
2021/08/05 01:13:57;;;;;;;2.55;1.95;;;;;;;;;;5091965;27;20058;-77
2021/08/05 01:16:43;;;;;;;3.80;2.10;;;;;;;;;;5079920;27;20400;-77
2021/08/05 01:19:40;;;;;;;3.00;1.75;;;;;;;;;;5122038;27;20506;-77
2021/08/05 01:22:40;;;;;;;2.45;1.60;;;;;;;;;;5106271;27;20050;-77
2021/08/05 01:25:32;;;;;;;3.00;1.92;;;;;;;;;;5097854;27;20079;-77
2021/08/05 01:28:17;;;;;;;2.70;1.65;;;;;;;;;;5108299;27;20039;-77
2021/08/05 01:31:03;;;;;;;2.42;1.77;;;;;;;;;;5072910;28;20043;-76
2021/08/05 01:33:48;;;;;;;2.38;1.67;;;;;;;;;;5083727;27;20108;-76
2021/08/05 01:36:33;;;;;;;2.30;1.70;;;;;;;;;;5098847;28;20042;-77
2021/08/05 01:39:17;;;;;;;2.92;1.80;;;;;;;;;;5115752;27;20034;-77
2021/08/05 01:42:02;;;;;;;2.50;1.65;;;;;;;;;;5130184;27;20063;-77
2021/08/05 01:44:49;;;;;;;2.58;1.88;;;;;;;;;;5121061;27;20051;-77
2021/08/05 01:47:34;;;;;;;2.20;1.60;;;;;;;;;;5093891;27;20050;-76
2021/08/05 01:50:19;;;;;;;2.83;1.75;;;;;;;;;;5111659;27;20131;-77
2021/08/05 01:53:03;;;;;;;2.63;1.80;;;;;;;;;;5082931;27;20311;-76
2021/08/05 01:55:48;;;;;;;2.42;1.70;;;;;;;;;;5111224;27;20090;-76
2021/08/05 01:58:33;;;;;;;3.10;1.85;;;;;;;;;;5105008;27;20099;-76
2021/08/05 02:01:18;;;;;;;2.42;1.75;;;;;;;;;;5091453;28;20039;-76
2021/08/05 02:04:05;;;;;;;2.33;1.73;;;;;;;;;;5078785;28;20408;-76
2021/08/05 02:07:00;;;;;;;2.45;1.80;;;;;;;;;;5113356;27;20038;-76
2021/08/05 02:09:54;;;;;;;3.00;1.70;;;;;;;;;;5097570;27;20121;-75
2021/08/05 02:12:43;;;;;;;2.95;1.75;;;;;;;;;;5105349;27;20054;-76
2021/08/05 02:15:27;;;;;;;3.13;1.90;;;;;;;;;;5090909;28;20049;-76
2021/08/05 02:18:12;;;;;;;3.05;1.75;;;;;;;;;;5090217;28;20105;-76
2021/08/05 02:20:57;;;;;;;3.55;2.00;;;;;;;;;;5100319;27;20043;-76
2021/08/05 02:23:41;;;;;;;2.72;1.70;;;;;;;;;;5082132;27;20088;-77
2021/08/05 02:26:26;;;;;;;3.03;1.83;;;;;;;;;;5108647;27;20026;-76
2021/08/05 02:29:11;;;;;;;3.08;2.00;;;;;;;;;;5117158;27;20038;-76
2021/08/05 02:31:57;;;;;;;2.90;1.85;;;;;;;;;;5089175;28;20627;-77
2021/08/05 02:34:41;;;;;;;3.33;1.60;;;;;;;;;;5093467;28;20149;-77
2021/08/05 02:37:26;;;;;;;2.45;1.42;;;;;;;;;;5095975;28;20035;-77
2021/08/05 02:40:11;;;;;;;2.30;1.60;;;;;;;;;;5090087;28;20038;-77
2021/08/05 02:42:55;;;;;;;2.50;1.77;;;;;;;;;;5104262;27;20041;-76
2021/08/05 02:45:40;;;;;;;2.53;1.80;;;;;;;;;;5079407;27;20043;-76
2021/08/05 02:48:25;;;;;;;2.10;1.70;;;;;;;;;;5095710;27;20087;-78
2021/08/05 02:51:09;;;;;;;2.40;1.60;;;;;;;;;;5091527;28;20499;-77
2021/08/05 02:53:54;;;;;;;3.33;1.83;;;;;;;;;;5092850;28;20051;-77
2021/08/05 02:56:39;;;;;;;3.42;1.80;;;;;;;;;;5075971;28;20058;-77
2021/08/05 02:59:27;;;;;;;3.13;1.80;;;;;;;;;;5126040;27;20121;-77
2021/08/05 03:02:14;;;;;;;1.98;1.55;;;;;;;;;;5088789;28;20491;-77
2021/08/05 03:04:59;;;;;;;2.45;1.85;;;;;;;;;;5077622;27;20099;-77
2021/08/05 03:07:44;;;;;;;2.25;1.60;;;;;;;;;;5114837;27;20088;-77
2021/08/05 03:10:29;;;;;;;2.10;1.60;;;;;;;;;;5138894;27;20062;-76
2021/08/05 03:13:13;;;;;;;2.22;1.50;;;;;;;;;;5091554;28;20046;-77
2021/08/05 03:15:57;;;;;;;1.75;1.35;;;;;;;;;;5109231;27;20407;-77
2021/08/05 03:18:42;;;;;;;2.72;1.88;;;;;;;;;;5101131;28;20080;-77
2021/08/05 03:21:27;;;;;;;3.17;1.58;;;;;;;;;;5112920;27;20400;-77
2021/08/05 03:24:11;;;;;;;2.50;1.75;;;;;;;;;;5092875;28;20034;-77
2021/08/05 03:26:57;;;;;;;2.92;1.60;;;;;;;;;;5106561;27;20070;-77
2021/08/05 03:29:41;;;;;;;2.63;1.77;;;;;;;;;;5106075;28;20411;-76
2021/08/05 03:32:26;;;;;;;2.58;1.60;;;;;;;;;;5092331;28;20042;-76
2021/08/05 03:35:11;;;;;;;2.65;1.55;;;;;;;;;;5098091;27;20061;-77
2021/08/05 03:37:56;;;;;;;2.15;1.38;;;;;;;;;;5096534;27;20047;-77
2021/08/05 03:40:40;;;;;;;2.20;1.70;;;;;;;;;;5075220;28;20121;-77
2021/08/05 03:43:25;;;;;;;2.65;1.85;;;;;;;;;;5076756;28;20038;-77
2021/08/05 03:46:09;;;;;;;2.45;1.40;;;;;;;;;;5120631;27;20846;-77
2021/08/05 03:48:54;;;;;;;2.40;1.80;;;;;;;;;;5077411;28;20039;-77
2021/08/05 03:51:38;;;;;;;2.60;1.70;;;;;;;;;;5075987;28;20455;-76
2021/08/05 03:54:23;;;;;;;2.42;1.67;;;;;;;;;;5091026;28;20058;-77
2021/08/05 03:57:07;;;;;;;2.80;1.75;;;;;;;;;;5106563;28;20541;-76
2021/08/05 03:59:52;;;;;;;2.03;1.55;;;;;;;;;;5090928;28;20092;-76
2021/08/05 04:02:37;;;;;;;2.58;1.63;;;;;;;;;;5090338;28;20095;-77
2021/08/05 04:05:22;;;;;;;2.60;1.48;;;;;;;;;;5089655;28;20078;-76
2021/08/05 04:08:06;;;;;;;2.28;1.60;;;;;;;;;;5090663;28;20313;-77
2021/08/05 04:10:51;;;;;;;2.17;1.70;;;;;;;;;;5081634;28;20578;-76
2021/08/05 04:13:35;;;;;;;1.80;1.50;;;;;;;;;;5118343;27;20054;-76
2021/08/05 04:16:20;;;;;;;2.22;1.60;;;;;;;;;;5070561;28;20093;-76
2021/08/05 04:19:04;;;;;;;2.20;1.50;;;;;;;;;;5089080;28;20118;-77
2021/08/05 04:21:51;;;;;;;2.80;1.80;;;;;;;;;;5100894;28;20042;-76
2021/08/05 04:24:36;;;;;;;3.47;1.60;;;;;;;;;;5103457;28;20096;-76
2021/08/05 04:27:20;;;;;;;1.85;1.42;;;;;;;;;;5089442;28;20046;-76
2021/08/05 04:30:05;;;;;;;2.33;1.60;;;;;;;;;;5070310;28;20067;-76
2021/08/05 04:32:50;;;;;;;2.47;1.58;;;;;;;;;;5093100;28;20050;-76
2021/08/05 04:35:34;;;;;;;2.20;1.60;;;;;;;;;;5133382;27;20118;-76
2021/08/05 04:38:19;;;;;;;2.70;1.70;;;;;;;;;;5083019;28;20124;-76
2021/08/05 04:41:04;;;;;;;2.05;1.50;;;;;;;;;;5079823;28;20567;-77
2021/08/05 04:43:48;;;;;;;2.92;1.83;;;;;;;;;;5074092;28;20082;-76
2021/08/05 04:46:33;;;;;;;2.15;1.60;;;;;;;;;;5093478;28;20038;-76
2021/08/05 04:49:17;;;;;;;3.13;1.73;;;;;;;;;;5100109;28;20140;-76
2021/08/05 04:52:02;;;;;;;2.38;1.55;;;;;;;;;;5061278;28;20047;-76
2021/08/05 04:54:47;;;;;;;2.33;1.73;;;;;;;;;;5093405;28;20135;-76
2021/08/05 04:57:31;;;;;;;2.65;1.73;;;;;;;;;;5074843;28;20072;-77
2021/08/05 05:00:19;;;;;;;1.83;1.48;;;;;;;;;;5106764;28;20047;-76
2021/08/05 05:03:04;;;;;;;2.22;1.50;;;;;;;;;;5092440;28;20115;-76
2021/08/05 05:05:49;;;;;;;1.80;1.65;;;;;;;;;;5090376;28;20147;-77
2021/08/05 05:08:34;;;;;;;3.00;1.58;;;;;;;;;;5100394;27;20042;-76
2021/08/05 05:11:18;;;;;;;2.40;1.70;;;;;;;;;;5076644;28;20077;-76
2021/08/05 05:14:02;;;;;;;2.85;1.70;;;;;;;;;;5090785;28;20100;-76
2021/08/05 05:16:48;;;;;;;2.10;1.48;;;;;;;;;;5104593;28;20060;-77
2021/08/05 05:19:32;;;;;;;2.60;1.50;;;;;;;;;;5089095;28;20457;-76
2021/08/05 05:22:16;;;;;;;2.58;1.50;;;;;;;;;;5117331;27;20062;-77
2021/08/05 05:25:01;;;;;;;2.25;1.67;;;;;;;;;;5091710;27;20047;-78
2021/08/05 05:27:46;;;;;;;2.03;1.60;;;;;;;;;;5116031;27;20046;-77
2021/08/05 05:30:30;;;;;;;2.28;1.67;;;;;;;;;;5062685;28;20042;-77
2021/08/05 05:33:15;;;;;;;2.30;1.67;;;;;;;;;;5100174;28;20148;-77
2021/08/05 05:35:59;;;;;;;2.40;1.45;;;;;;;;;;5078590;28;20153;-77
2021/08/05 05:38:44;;;;;;;3.47;1.50;;;;;;;;;;5106965;27;20050;-77
2021/08/05 05:41:28;;;;;;;2.92;1.73;;;;;;;;;;5120018;27;20146;-77
2021/08/05 05:44:13;;;;;;;2.45;1.65;;;;;;;;;;5109854;27;20485;-77
2021/08/05 05:46:57;;;;;;;2.28;1.77;;;;;;;;;;5105041;28;20080;-77
2021/08/05 05:49:42;;;;;;;4.28;1.70;;;;;;;;;;5114112;27;20050;-77
2021/08/05 05:52:27;;;;;;;2.50;1.55;;;;;;;;;;5086714;28;20026;-77
2021/08/05 05:55:11;;;;;;;2.08;1.50;;;;;;;;;;5085348;28;20089;-77
2021/08/05 05:57:57;;;;;;;2.58;1.80;;;;;;;;;;5105711;28;20034;-77
2021/08/05 06:00:42;;;;;;;2.30;1.58;;;;;;;;;;5074764;28;20043;-77
2021/08/05 06:03:26;;;;;;;2.75;1.77;;;;;;;;;;5086605;28;20076;-77
2021/08/05 06:06:11;;;;;;;3.45;1.55;;;;;;;;;;5090253;28;20396;-77
2021/08/05 06:08:56;;;;;;;2.95;1.70;;;;;;;;;;5089965;28;20088;-78
2021/08/05 06:11:41;;;;;;;3.30;1.70;;;;;;;;;;5089665;28;20125;-77
2021/08/05 06:14:26;;;;;;;3.10;1.60;;;;;;;;;;5105406;28;20054;-77
2021/08/05 06:17:10;;;;;;;2.42;1.60;;;;;;;;;;5105009;28;20034;-77
2021/08/05 06:19:55;;;;;;;1.67;1.30;;;;;;;;;;5101961;28;20038;-76
2021/08/05 06:22:41;;;;;;;2.33;1.65;;;;;;;;;;5083317;28;20050;-76
2021/08/05 06:25:26;;;;;;;2.42;1.65;;;;;;;;;;5089989;27;20118;-79
2021/08/05 06:28:11;;;;;;;2.28;1.40;;;;;;;;;;5090505;28;20093;-79
2021/08/05 06:30:55;;;;;;;2.63;1.75;;;;;;;;;;5074472;28;20070;-79
2021/08/05 06:33:40;;;;;;;3.15;1.75;;;;;;;;;;5068349;28;20055;-77
2021/08/05 06:36:25;;;;;;;2.42;1.67;;;;;;;;;;5098586;28;20047;-80
2021/08/05 06:39:10;;;;;;;2.30;1.65;;;;;;;;;;5083349;28;20514;-79
2021/08/05 06:41:55;;;;;;;2.55;1.75;;;;;;;;;;5087569;28;20070;-79
2021/08/05 06:44:40;;;;;;;2.28;1.80;;;;;;;;;;5089183;28;20574;-78
2021/08/05 06:47:25;;;;;;;2.20;1.48;;;;;;;;;;5083495;28;20758;-80
2021/08/05 06:50:10;;;;;;;2.08;1.50;;;;;;;;;;5061139;28;20034;-79
2021/08/05 06:52:55;;;;;;;2.40;1.50;;;;;;;;;;5089948;28;20483;-79
2021/08/05 06:55:40;;;;;;;1.98;1.40;;;;;;;;;;5091033;28;20538;-79
2021/08/05 06:58:25;;;;;;;3.08;1.70;;;;;;;;;;5081243;28;20066;-80
2021/08/05 07:01:10;;;;;;;2.13;1.73;;;;;;;;;;5108618;27;20798;-78
2021/08/05 07:03:55;;;;;;;2.00;1.40;;;;;;;;;;5104609;27;20050;-79
2021/08/05 07:06:40;;;;;;;2.53;1.30;;;;;;;;;;5069575;28;20152;-78
2021/08/05 07:09:25;;;;;;;2.78;1.40;;;;;;;;;;5084463;28;20046;-79
2021/08/05 07:12:10;;;;;;;3.25;1.45;;;;;;;;;;5101241;28;20035;-78
2021/08/05 07:14:54;;;;;;;1.90;1.50;;;;;;;;;;5094073;27;20038;-78
2021/08/05 07:17:44;;;;;;;2.50;1.33;;;;;;;;;;5068628;28;20416;-79
2021/08/05 07:20:29;;;;;;;3.10;1.60;;;;;;;;;;5077783;28;20042;-78
2021/08/05 07:23:14;;;;;;;2.67;1.60;;;;;;;;;;5094197;27;20035;-78
2021/08/05 07:25:58;;;;;;;2.03;1.48;;;;;;;;;;5112644;27;20042;-78
2021/08/05 07:28:44;;;;;;;2.15;1.45;;;;;;;;;;5102650;27;20042;-78
2021/08/05 07:31:28;;;;;;;3.20;1.52;;;;;;;;;;5107464;27;20043;-78
2021/08/05 07:34:12;;;;;;;4.05;1.63;;;;;;;;;;5096298;27;20473;-77
2021/08/05 07:36:57;;;;;;;4.82;1.73;;;;;;;;;;5102730;28;20059;-78
2021/08/05 07:39:41;;;;;;;7.18;2.45;;;;;;;;;;5102887;28;20158;-78
2021/08/05 07:42:26;;;;;;;7.15;2.30;;;;;;;;;;5103335;28;20403;-78
2021/08/05 07:45:11;;;;;;;9.02;2.85;;;;;;;;;;5082657;27;20047;-76
2021/08/05 07:47:58;;;;;;;9.55;2.85;;;;;;;;;;5074332;28;20447;-77
2021/08/05 07:50:43;;;;;;;7.78;2.65;;;;;;;;;;5098019;27;20100;-77
2021/08/05 07:53:28;;;;;;;6.97;2.67;;;;;;;;;;5077486;28;20050;-78
2021/08/05 07:56:18;;;;;;;3.88;1.98;;;;;;;;;;5106746;28;20087;-78
2021/08/05 07:59:06;;;;;;;2.95;1.13;;;;;;;;;;5086776;28;20042;-77
2021/08/05 08:01:51;;;;;;;2.28;1.02;;;;;;;;;;5088288;28;20105;-77
2021/08/05 08:04:36;;;;;;;1.58;0.95;;;;;;;;;;5076158;28;20043;-78
2021/08/05 08:07:21;;;;;;;1.48;0.70;;;;;;;;;;5068736;28;20035;-76
2021/08/05 08:10:06;;;;;;;1.50;0.70;;;;;;;;;;5068689;28;20097;-76
2021/08/05 08:12:55;;;;;;;1.40;0.77;;;;;;;;;;5092979;27;20511;-76
2021/08/05 08:15:42;;;;;;;1.58;0.90;;;;;;;;;;5109518;27;20051;-76
2021/08/05 08:18:27;;;;;;;3.25;1.20;;;;;;;;;;5108741;27;20068;-77
2021/08/05 08:21:12;;;;;;;4.60;1.38;;;;;;;;;;5095010;27;20084;-76
2021/08/05 08:23:57;;;;;;;4.45;1.38;;;;;;;;;;5096106;27;20082;-76
2021/08/05 08:26:41;;;;;;;5.53;1.50;;;;;;;;;;5091374;28;20534;-77
2021/08/05 08:29:26;;;;;;;5.65;1.77;;;;;;;;;;5071163;28;20153;-77
2021/08/05 08:32:11;;;;;;;4.30;1.55;;;;;;;;;;5096772;27;20034;-76
2021/08/05 08:34:58;;;;;;;4.95;1.50;;;;;;;;;;5113559;27;20070;-76
2021/08/05 08:37:43;;;;;;;6.10;1.83;;;;;;;;;;5080656;27;20038;-76
2021/08/05 08:40:28;;;;;;;6.82;1.85;;;;;;;;;;5099140;27;20039;-76
2021/08/05 08:43:13;;;;;;;5.15;1.92;;;;;;;;;;5085857;28;20074;-76
2021/08/05 08:45:58;;;;;;;5.80;1.83;;;;;;;;;;5087188;27;20051;-76
2021/08/05 08:48:43;;;;;;;5.22;2.05;;;;;;;;;;5092363;27;20038;-76
2021/08/05 08:51:28;;;;;;;6.13;1.67;;;;;;;;;;5095814;28;20590;-76
2021/08/05 08:54:12;;;;;;;5.93;2.05;;;;;;;;;;5101197;27;20038;-80
2021/08/05 08:56:56;;;;;;;5.65;2.00;;;;;;;;;;5098484;27;20033;-77
2021/08/05 08:59:41;;;;;;;5.28;1.85;;;;;;;;;;5080871;27;20070;-77
2021/08/05 09:02:26;;;;;;;7.00;2.13;;;;;;;;;;5096771;27;20047;-77
2021/08/05 09:05:11;;;;;;;4.25;1.70;;;;;;;;;;5082788;28;20043;-77
2021/08/05 09:07:58;;;;;;;6.20;1.95;;;;;;;;;;5098281;27;20034;-77
2021/08/05 09:10:42;;;;;;;6.20;2.00;;;;;;;;;;5087858;28;20058;-77
2021/08/05 09:13:27;;;;;;;5.15;1.52;;;;;;;;;;5122734;27;20062;-79
2021/08/05 09:16:20;;;;;;;6.53;1.95;;;;;;;;;;5082314;27;20676;-80
2021/08/05 09:19:09;;;;;;;8.82;1.95;;;;;;;;;;5082225;27;20106;-81
2021/08/05 09:21:55;;;;;;;6.13;1.77;;;;;;;;;;5084490;27;20074;-80
2021/08/05 09:24:39;;;;;;;4.47;1.80;;;;;;;;;;5120989;27;20495;-79
2021/08/05 09:27:31;;;;;;;4.82;1.60;;;;;;;;;;5103616;27;20042;-79
2021/08/05 09:30:32;;;;;;;6.00;1.77;;;;;;;;;;5086141;28;20100;-79
2021/08/05 09:33:17;;;;;;;6.50;1.80;;;;;;;;;;5111554;27;20228;-78
2021/08/05 09:36:02;;;;;;;6.03;2.10;;;;;;;;;;5123126;27;20831;-78
2021/08/05 09:38:46;;;;;;;4.13;1.80;;;;;;;;;;5100734;27;20133;-78
2021/08/05 09:41:30;;;;;;;5.43;1.90;;;;;;;;;;5088343;27;20580;-78
2021/08/05 09:44:15;;;;;;;4.38;1.65;;;;;;;;;;5087698;28;20565;-77
2021/08/05 09:47:03;;;;;;;5.78;1.50;;;;;;;;;;5095543;27;20406;-77
2021/08/05 09:49:51;;;;;;;5.07;1.50;;;;;;;;;;5073249;28;20719;-78
2021/08/05 09:52:36;;;;;;;6.00;1.73;;;;;;;;;;5120491;27;20046;-79
2021/08/05 09:55:22;;;;;;;6.72;1.67;;;;;;;;;;5088233;28;20042;-78
2021/08/05 09:58:07;;;;;;;6.90;2.05;;;;;;;;;;5105479;27;20616;-76
2021/08/05 10:00:51;;;;;;;5.38;1.75;;;;;;;;;;5104378;27;20039;-81
2021/08/05 10:03:39;;;;;;;8.38;2.28;;;;;;;;;;5094171;27;20119;-78
2021/08/05 10:06:24;;;;;;;4.97;1.70;;;;;;;;;;5079191;28;20128;-77
2021/08/05 10:09:17;;;;;;;5.82;2.00;;;;;;;;;;5104494;27;20038;-77
2021/08/05 10:12:19;;;;;;;8.10;2.08;;;;;;;;;;5078987;28;20550;-77
2021/08/05 10:15:05;;;;;;;8.93;1.83;;;;;;;;;;5082537;28;20578;-79
2021/08/05 10:17:52;;;;;;;7.82;2.05;;;;;;;;;;5104045;28;20047;-77
2021/08/05 10:20:36;;;;;;;7.82;2.10;;;;;;;;;;5085882;28;20047;-81
2021/08/05 10:23:21;;;;;;;8.57;1.88;;;;;;;;;;5114141;27;20519;-79
2021/08/05 10:26:06;;;;;;;5.63;1.58;;;;;;;;;;5090381;28;20361;-79
2021/08/05 10:28:51;;;;;;;4.85;1.88;;;;;;;;;;5101181;27;20503;-78
2021/08/05 10:31:39;;;;;;;4.13;1.35;;;;;;;;;;5081105;28;20038;-79
2021/08/05 10:34:23;;;;;;;2.92;1.38;;;;;;;;;;5114302;27;20617;-78
2021/08/05 10:37:09;;;;;;;4.65;1.60;;;;;;;;;;5090028;28;20388;-78
2021/08/05 10:39:54;;;;;;;3.17;1.45;;;;;;;;;;5083651;28;20046;-79
2021/08/05 10:42:41;;;;;;;5.10;2.08;;;;;;;;;;5113032;27;20083;-77
2021/08/05 10:45:26;;;;;;;5.15;1.70;;;;;;;;;;5097369;28;20519;-77
2021/08/05 10:48:11;;;;;;;7.10;2.13;;;;;;;;;;5095854;28;20088;-80
2021/08/05 10:50:56;;;;;;;6.93;2.08;;;;;;;;;;5088771;27;20393;-76
2021/08/05 10:53:45;;;;;;;6.25;2.00;;;;;;;;;;5073845;28;20359;-81
2021/08/05 10:56:30;;;;;;;4.30;1.83;;;;;;;;;;5084850;28;20042;-78
2021/08/05 10:59:16;;;;;;;5.35;1.90;;;;;;;;;;5094199;27;20473;-78
2021/08/05 11:02:00;;;;;;;5.35;2.10;;;;;;;;;;5063734;28;20038;-78
2021/08/05 11:04:45;;;;;;;3.78;2.28;;;;;;;;;;5069141;28;20047;-77
2021/08/05 11:07:31;;;;;;;3.70;1.55;;;;;;;;;;5112577;27;20861;-76
2021/08/05 11:10:24;;;;;;;3.70;1.70;;;;;;;;;;5074485;28;20091;-75
2021/08/05 11:13:09;;;;;;;3.58;1.63;;;;;;;;;;5098058;28;20419;-74
2021/08/05 11:15:54;;;;;;;4.38;1.70;;;;;;;;;;5094793;28;20611;-75
2021/08/05 11:18:38;;;;;;;3.67;1.42;;;;;;;;;;5122654;27;20164;-74
2021/08/05 11:21:23;;;;;;;3.05;1.20;;;;;;;;;;5104270;27;20115;-75
2021/08/05 11:24:08;;;;;;;3.70;1.50;;;;;;;;;;5088430;27;20054;-75
2021/08/05 11:27:11;;;;;;;1.90;1.00;;;;;;;;;;5085796;27;20139;-75
2021/08/05 11:29:59;;;;;;;1.92;1.00;;;;;;;;;;5073056;28;20046;-74
2021/08/05 11:32:44;;;;;;;1.98;1.15;;;;;;;;;;5099995;28;20046;-75
2021/08/05 11:35:28;;;;;;;2.53;1.30;;;;;;;;;;5109733;27;20042;-77
2021/08/05 11:38:13;;;;;;;2.85;1.23;;;;;;;;;;5113745;27;20408;-77
2021/08/05 11:40:58;;;;;;;2.90;1.30;;;;;;;;;;5090019;28;20419;-76
2021/08/05 11:43:43;;;;;;;3.10;1.50;;;;;;;;;;5082093;28;20035;-75
2021/08/05 11:46:32;;;;;;;2.80;1.30;;;;;;;;;;5100803;27;20089;-76
2021/08/05 11:49:36;;;;;;;2.10;1.00;;;;;;;;;;5086037;28;20682;-77
2021/08/05 11:52:25;;;;;;;3.40;1.10;;;;;;;;;;5116367;27;20119;-77
2021/08/05 11:55:20;;;;;;;3.47;1.40;;;;;;;;;;5099589;27;20043;-77
2021/08/05 11:58:05;;;;;;;1.85;1.02;;;;;;;;;;5068412;28;20042;-75
2021/08/05 12:00:49;;;;;;;2.72;1.38;;;;;;;;;;5084890;28;20454;-75
2021/08/05 12:03:34;;;;;;;3.10;1.15;;;;;;;;;;5121965;27;20741;-76
2021/08/05 12:17:01;;;;;;;1.63;0.80;;;;;;;;;;5097046;27;20497;-77
2021/08/05 12:19:52;;;;;;;2.92;1.10;;;;;;;;;;5081961;28;20477;-76
2021/08/05 12:22:39;;;;;;;2.10;1.00;;;;;;;;;;5063390;28;20119;-74
2021/08/05 12:25:26;;;;;;;1.45;0.90;;;;;;;;;;5077767;28;20059;-73
2021/08/05 12:28:12;;;;;;;2.97;1.05;;;;;;;;;;5077802;28;20534;-75
2021/08/05 12:31:01;;;;;;;2.90;1.38;;;;;;;;;;5078107;28;20047;-74
2021/08/05 12:33:46;;;;;;;1.75;0.90;;;;;;;;;;5081693;28;20070;-73
2021/08/05 12:36:31;;;;;;;1.52;0.98;;;;;;;;;;5072446;28;20046;-73
2021/08/05 12:39:22;;;;;;;2.80;0.80;;;;;;;;;;5094408;28;20611;-74
2021/08/05 12:42:08;;;;;;;3.17;1.25;;;;;;;;;;5073807;28;20043;-75
2021/08/05 12:44:52;;;;;;;2.67;1.23;;;;;;;;;;5085723;28;20110;-73
2021/08/05 12:47:37;;;;;;;1.70;0.82;;;;;;;;;;5094376;28;20048;-73
2021/08/05 12:50:21;;;;;;;2.13;0.95;;;;;;;;;;5059281;28;20479;-73
2021/08/05 12:53:06;;;;;;;1.85;0.90;;;;;;;;;;5077977;28;20071;-73
2021/08/05 12:55:51;;;;;;;1.65;0.80;;;;;;;;;;5095150;27;20059;-73
2021/08/05 12:58:35;;;;;;;2.63;0.90;;;;;;;;;;5104097;28;20090;-73
2021/08/05 13:01:21;;;;;;;1.50;0.80;;;;;;;;;;5077691;28;20044;-73
2021/08/05 13:04:15;;;;;;;2.20;1.00;;;;;;;;;;5070721;28;20094;-73
2021/08/05 13:07:01;;;;;;;1.23;0.82;;;;;;;;;;5083444;28;20048;-73
2021/08/05 13:09:49;;;;;;;1.52;1.08;;;;;;;;;;5075691;28;20087;-73
2021/08/05 13:12:35;;;;;;;2.55;1.15;;;;;;;;;;5096700;28;20046;-75
2021/08/05 13:15:29;;;;;;;1.70;0.90;;;;;;;;;;5098532;28;20415;-73
2021/08/05 13:18:20;;;;;;;2.78;1.02;;;;;;;;;;5061793;28;20047;-73
2021/08/05 13:21:11;;;;;;;1.88;0.90;;;;;;;;;;5063614;28;20043;-75
2021/08/05 13:23:56;;;;;;;1.45;0.90;;;;;;;;;;5062356;28;20039;-75
2021/08/05 13:26:43;;;;;;;2.95;0.90;;;;;;;;;;5071945;28;20393;-74
2021/08/05 13:29:47;;;;;;;2.13;1.00;;;;;;;;;;5054054;28;20145;-74
2021/08/05 13:32:32;;;;;;;1.77;0.98;;;;;;;;;;5085007;28;20044;-73
2021/08/05 13:35:18;;;;;;;2.90;1.33;;;;;;;;;;5090550;28;20032;-72
2021/08/05 13:38:04;;;;;;;1.88;0.93;;;;;;;;;;5083837;28;20669;-71
2021/08/05 13:40:48;;;;;;;2.08;1.00;;;;;;;;;;5062358;28;20048;-72
2021/08/05 13:43:33;;;;;;;3.05;0.90;;;;;;;;;;5080044;28;20109;-74
2021/08/05 13:46:17;;;;;;;1.58;1.10;;;;;;;;;;5080090;28;20614;-73
2021/08/05 13:49:02;;;;;;;2.50;0.90;;;;;;;;;;5047031;28;20059;-73
2021/08/05 13:51:47;;;;;;;2.22;0.90;;;;;;;;;;5060665;28;21064;-73
2021/08/05 13:54:32;;;;;;;2.47;1.20;;;;;;;;;;5043834;28;20043;-72
2021/08/05 13:57:17;;;;;;;1.67;1.00;;;;;;;;;;5078699;28;20043;-72
2021/08/05 14:00:02;;;;;;;2.30;1.02;;;;;;;;;;5064655;28;20511;-74
2021/08/05 14:02:47;;;;;;;1.65;1.00;;;;;;;;;;5067435;28;20095;-74
2021/08/05 14:05:31;;;;;;;2.97;1.20;;;;;;;;;;5063571;28;20055;-73
2021/08/05 14:08:16;;;;;;;1.80;1.10;;;;;;;;;;5093724;28;20035;-73
2021/08/05 14:11:00;;;;;;;2.75;1.13;;;;;;;;;;5051243;28;20048;-74
2021/08/05 14:13:45;;;;;;;1.70;1.10;;;;;;;;;;5060902;28;20078;-75
2021/08/05 14:16:29;;;;;;;2.13;1.00;;;;;;;;;;5074131;28;20047;-73
2021/08/05 14:19:15;;;;;;;2.10;1.00;;;;;;;;;;5050702;28;20425;-74
2021/08/05 14:22:00;;;;;;;2.42;1.20;;;;;;;;;;5056166;28;20058;-74
2021/08/05 14:24:44;;;;;;;1.77;1.00;;;;;;;;;;5058750;28;20047;-73
2021/08/05 14:27:29;;;;;;;3.22;1.00;;;;;;;;;;5079845;28;20187;-74
2021/08/05 14:30:13;;;;;;;2.67;1.20;;;;;;;;;;5070294;28;20515;-74
2021/08/05 14:32:58;;;;;;;2.70;1.20;;;;;;;;;;5048378;28;20339;-73
2021/08/05 14:35:43;;;;;;;1.75;1.30;;;;;;;;;;5059829;28;20072;-73
2021/08/05 14:38:27;;;;;;;3.20;1.10;;;;;;;;;;5071001;28;20067;-74
2021/08/05 14:41:12;;;;;;;2.25;1.20;;;;;;;;;;5047303;28;20214;-74
2021/08/05 14:43:57;;;;;;;2.83;1.10;;;;;;;;;;5062969;28;20093;-73
2021/08/05 14:46:44;;;;;;;1.30;1.00;;;;;;;;;;5062218;28;20417;-73
2021/08/05 14:49:29;;;;;;;2.83;1.10;;;;;;;;;;5063226;28;20094;-73
2021/08/05 14:52:14;;;;;;;1.77;1.00;;;;;;;;;;5059349;28;20051;-73
2021/08/05 14:54:59;;;;;;;2.15;1.10;;;;;;;;;;5061468;28;20737;-73
2021/08/05 14:57:44;;;;;;;4.25;1.20;;;;;;;;;;5061017;28;20117;-73
2021/08/05 15:00:28;;;;;;;2.22;1.10;;;;;;;;;;5076050;27;20082;-73
2021/08/05 15:03:13;;;;;;;1.65;1.13;;;;;;;;;;5059840;28;20067;-74
2021/08/05 15:05:59;;;;;;;2.88;1.38;;;;;;;;;;5066011;28;20387;-73
2021/08/05 15:08:43;;;;;;;1.75;1.13;;;;;;;;;;5084258;28;20081;-76
2021/08/05 15:11:28;;;;;;;2.08;1.17;;;;;;;;;;5066320;28;20051;-75
2021/08/05 15:14:13;;;;;;;3.28;1.60;;;;;;;;;;5058693;28;20142;-75
2021/08/05 15:16:57;;;;;;;2.38;1.40;;;;;;;;;;5079204;28;20402;-74
2021/08/05 15:19:42;;;;;;;3.20;1.50;;;;;;;;;;5050588;28;20116;-74
2021/08/05 15:22:26;;;;;;;1.75;1.25;;;;;;;;;;5061898;28;20038;-74
2021/08/05 15:25:17;;;;;;;2.50;1.45;;;;;;;;;;5076348;28;20163;-74
2021/08/05 15:28:01;;;;;;;3.25;1.60;;;;;;;;;;5044993;28;20079;-73
2021/08/05 15:30:46;;;;;;;1.85;1.38;;;;;;;;;;5057015;28;20042;-74
2021/08/05 15:33:31;;;;;;;2.80;1.48;;;;;;;;;;5056087;28;20167;-75
2021/08/05 15:36:16;;;;;;;2.55;1.42;;;;;;;;;;5044613;28;20040;-73
2021/08/05 15:39:02;;;;;;;2.78;1.50;;;;;;;;;;5076325;28;20039;-73
2021/08/05 15:41:47;;;;;;;1.98;1.48;;;;;;;;;;5062184;28;20038;-73
2021/08/05 15:44:32;;;;;;;1.92;1.20;;;;;;;;;;5046960;28;20115;-73
2021/08/05 15:47:17;;;;;;;2.90;1.40;;;;;;;;;;5058555;28;20562;-74
2021/08/05 15:50:01;;;;;;;2.33;1.33;;;;;;;;;;5081766;28;20068;-75
2021/08/05 15:52:46;;;;;;;2.45;1.60;;;;;;;;;;5062710;28;20102;-73
2021/08/05 15:55:31;;;;;;;3.22;1.52;;;;;;;;;;5056133;28;20043;-73
2021/08/05 15:58:15;;;;;;;2.63;1.50;;;;;;;;;;5058621;28;20038;-73
2021/08/05 16:01:00;;;;;;;3.40;1.70;;;;;;;;;;5062260;28;20667;-74
2021/08/05 16:03:45;;;;;;;2.20;1.50;;;;;;;;;;5054510;28;20083;-73
2021/08/05 16:06:29;;;;;;;2.58;1.45;;;;;;;;;;5063781;28;20059;-73
2021/08/05 16:09:14;;;;;;;2.83;1.40;;;;;;;;;;5041691;28;20523;-73
2021/08/05 16:11:58;;;;;;;2.47;1.40;;;;;;;;;;5071636;28;20130;-73
2021/08/05 16:14:43;;;;;;;2.13;1.75;;;;;;;;;;5077985;28;20043;-72
2021/08/05 16:17:28;;;;;;;1.98;1.48;;;;;;;;;;5074007;28;20098;-73
2021/08/05 16:20:13;;;;;;;2.30;1.70;;;;;;;;;;5065660;28;20070;-73
2021/08/05 16:22:58;;;;;;;3.20;1.60;;;;;;;;;;5063305;28;20142;-72
2021/08/05 16:25:43;;;;;;;2.05;1.40;;;;;;;;;;5080332;28;20110;-73
2021/08/05 16:28:27;;;;;;;2.05;1.40;;;;;;;;;;5069498;28;20131;-73
2021/08/05 16:31:12;;;;;;;2.83;1.60;;;;;;;;;;5068097;28;20047;-73
2021/08/05 16:33:57;;;;;;;1.80;1.48;;;;;;;;;;5078040;28;20082;-73
2021/08/05 16:36:41;;;;;;;2.30;1.30;;;;;;;;;;5062992;28;20047;-73
2021/08/05 16:39:26;;;;;;;2.17;1.20;;;;;;;;;;5065769;28;20040;-73
2021/08/05 16:42:10;;;;;;;2.40;1.40;;;;;;;;;;5045575;28;20413;-74
2021/08/05 16:44:55;;;;;;;1.42;1.20;;;;;;;;;;5076466;28;20114;-74